Archival Weather

General Ignacio P Garcia Intl

General Ignacio P Garcia Intl, Mexico (MMHO)

Report from: Wednesday, December 6, 2023 10:40 PM CST
Current time: Tuesday, May 21, 2024 11:14 AM CST

Current weather – Weather history – Daily summaries
Weather forecast

Temperature17.0°C (62.6°F)
Dew point3.0°C (37.4°F)
Winds Calm
Visibility10 mi. (16.1 km)
Clouds Sky clear
Altimeter30.02 in.Hg (1017 mB)
Relative humidity39 %
Density altitude237 ft. (72 m)
Flight conditions Visual Meteorological Conditions
Raw dataMMHO 070440Z 00000KT 10SM SKC 17/03 A3002 RMK HZY
An error has occurred. This application may no longer respond until reloaded. Reload 🗙